createdAt,value
2019-05-15T00:00:34.917Z,71.49
2019-05-15T00:01:34.897Z,70.88
2019-05-15T00:02:34.896Z,70.37
2019-05-15T00:03:34.915Z,70.16
2019-05-15T00:04:34.875Z,70.20
2019-05-15T00:05:34.865Z,70.40
2019-05-15T00:06:34.855Z,70.29
2019-05-15T00:07:34.844Z,70.29
2019-05-15T00:08:34.843Z,70.20
2019-05-15T00:09:34.824Z,69.99
2019-05-15T00:10:34.811Z,69.89
2019-05-15T00:11:34.793Z,70.09
2019-05-15T00:12:34.801Z,70.29
2019-05-15T00:13:34.773Z,70.29
2019-05-15T00:14:34.791Z,69.99
2019-05-15T00:15:34.751Z,69.68
2019-05-15T00:16:34.742Z,69.89
2019-05-15T00:17:34.739Z,69.68
2019-05-15T00:18:34.719Z,69.68
2019-05-15T00:19:34.718Z,69.17
2019-05-15T00:20:34.700Z,68.87
2019-05-15T00:21:34.694Z,69.79
2019-05-15T00:22:34.680Z,69.27
2019-05-15T00:23:34.667Z,69.27
2019-05-15T00:24:34.667Z,69.58
2019-05-15T00:25:34.645Z,69.48
2019-05-15T00:26:34.634Z,68.46
2019-05-15T00:27:34.636Z,68.46
2019-05-15T00:28:34.617Z,68.66
2019-05-15T00:29:34.615Z,68.87
2019-05-15T00:30:34.595Z,68.66
2019-05-15T00:31:34.587Z,68.35
2019-05-15T00:32:34.574Z,68.05
2019-05-15T00:33:34.563Z,67.84
2019-05-15T00:34:34.552Z,67.13
2019-05-15T00:35:34.543Z,66.41
2019-05-15T00:36:34.525Z,66.41
2019-05-15T00:37:34.496Z,66.20
2019-05-15T00:38:34.485Z,66.51
2019-05-15T00:39:34.475Z,66.61
2019-05-15T00:40:34.474Z,66.31
2019-05-15T00:41:47.565Z,67.26
2019-05-15T00:42:35.443Z,66.61
2019-05-15T00:43:34.446Z,66.34
2019-05-15T00:44:34.433Z,66.75
2019-05-15T00:45:34.413Z,66.85
2019-05-15T00:46:34.401Z,66.54
2019-05-15T00:47:34.402Z,66.54
2019-05-15T00:48:34.382Z,66.85
2019-05-15T00:49:34.373Z,67.26
2019-05-15T00:50:34.351Z,66.44
2019-05-15T00:51:34.340Z,66.64
2019-05-15T00:52:34.340Z,66.95
2019-05-15T00:53:34.319Z,66.44
2019-05-15T00:54:34.310Z,66.95
2019-05-15T00:55:34.300Z,66.67
2019-05-15T00:56:34.289Z,66.78
2019-05-15T00:57:34.308Z,67.08
2019-05-15T00:58:34.287Z,67.40
2019-05-15T00:59:34.258Z,67.08
2019-05-15T01:00:34.247Z,67.19
2019-05-15T01:01:34.245Z,67.29
2019-05-15T01:02:34.237Z,67.40
2019-05-15T01:03:34.216Z,67.70
2019-05-15T01:04:34.207Z,67.70
2019-05-15T01:05:34.195Z,67.80
2019-05-15T01:06:34.195Z,68.11
2019-05-15T01:07:34.174Z,67.40
2019-05-15T01:08:34.173Z,67.29
2019-05-15T01:09:34.153Z,67.52
2019-05-15T01:10:34.143Z,67.73
2019-05-15T01:11:34.123Z,68.04
2019-05-15T01:12:34.125Z,68.21
2019-05-15T01:13:34.121Z,68.14
2019-05-15T01:14:34.102Z,68.24
2019-05-15T01:15:34.091Z,68.45
2019-05-15T01:16:34.079Z,68.24
2019-05-15T01:17:34.080Z,68.24
2019-05-15T01:18:34.059Z,68.14
2019-05-15T01:19:34.039Z,68.45
2019-05-15T01:20:34.038Z,67.83
2019-05-15T01:21:34.034Z,68.04
2019-05-15T01:22:34.017Z,68.14
2019-05-15T01:23:33.998Z,68.24
2019-05-15T01:24:34.007Z,68.24
2019-05-15T01:25:33.978Z,68.14
2019-05-15T01:26:33.976Z,68.14
2019-05-15T01:27:33.956Z,68.24
2019-05-15T01:28:33.945Z,68.04
2019-05-15T01:29:41.957Z,68.65
2019-05-15T01:30:34.924Z,68.45
2019-05-15T01:31:33.924Z,68.65
2019-05-15T01:32:33.905Z,68.65
2019-05-15T01:33:33.893Z,68.96
2019-05-15T01:34:33.909Z,68.76
2019-05-15T01:35:34.031Z,68.86
2019-05-15T01:36:33.862Z,69.27
2019-05-15T01:37:33.851Z,69.47
2019-05-15T01:38:33.844Z,68.76
2019-05-15T01:39:33.841Z,68.99
2019-05-15T01:40:33.820Z,68.99
2019-05-15T01:41:33.801Z,69.20
2019-05-15T01:42:33.799Z,68.99
2019-05-15T01:43:33.782Z,69.10
2019-05-15T01:44:33.782Z,69.10
2019-05-15T01:45:33.770Z,68.79
2019-05-15T01:46:33.747Z,68.89
2019-05-15T01:47:33.752Z,68.68
2019-05-15T01:48:33.735Z,68.89
2019-05-15T01:49:33.726Z,68.68
2019-05-15T01:50:33.706Z,68.79
2019-05-15T01:51:33.695Z,68.27
2019-05-15T01:52:33.695Z,68.17
2019-05-15T01:53:33.685Z,68.48
2019-05-15T01:54:33.675Z,68.27
2019-05-15T01:55:33.654Z,68.59
2019-05-15T01:56:33.647Z,69.20
2019-05-15T01:57:33.633Z,68.59
2019-05-15T01:58:33.642Z,68.59
2019-05-15T01:59:33.665Z,68.79
2019-05-15T02:00:33.612Z,68.79
2019-05-15T02:01:33.601Z,68.79
2019-05-15T02:02:33.582Z,68.89
2019-05-15T02:03:33.561Z,68.07
2019-05-15T02:04:33.560Z,68.27
2019-05-15T02:05:33.550Z,68.17
2019-05-15T02:06:33.549Z,67.76
2019-05-15T02:07:33.529Z,67.86
2019-05-15T02:08:33.528Z,67.76
2019-05-15T02:09:33.509Z,67.56
2019-05-15T02:10:33.544Z,67.56
2019-05-15T02:11:33.488Z,68.21
2019-05-15T02:12:33.542Z,67.90
2019-05-15T02:13:33.467Z,67.59
2019-05-15T02:14:33.478Z,68.10
2019-05-15T02:15:33.476Z,67.86
2019-05-15T02:16:33.435Z,67.76
2019-05-15T02:17:33.416Z,67.38
2019-05-15T02:18:33.424Z,68.00
2019-05-15T02:19:33.394Z,68.21
2019-05-15T02:20:33.393Z,67.79
2019-05-15T02:21:33.373Z,67.69
2019-05-15T02:22:33.371Z,67.90
2019-05-15T02:23:33.362Z,68.41
2019-05-15T02:24:33.344Z,68.72
2019-05-15T02:25:33.332Z,68.92
2019-05-15T02:26:33.321Z,69.33
2019-05-15T02:27:33.811Z,69.02
2019-05-15T02:28:33.309Z,68.51
2019-05-15T02:29:33.291Z,68.41
2019-05-15T02:30:34.342Z,68.41
2019-05-15T02:31:33.270Z,68.51
2019-05-15T02:32:33.261Z,68.51
2019-05-15T02:33:33.261Z,68.62
2019-05-15T02:34:33.244Z,68.54
2019-05-15T02:35:33.240Z,68.65
2019-05-15T02:36:33.236Z,69.06
2019-05-15T02:37:33.206Z,68.96
2019-05-15T02:38:33.197Z,68.75
2019-05-15T02:39:33.187Z,68.85
2019-05-15T02:40:33.167Z,68.96
2019-05-15T02:41:33.192Z,69.06
2019-05-15T02:42:33.155Z,69.78
2019-05-15T02:43:33.155Z,69.37
2019-05-15T02:44:33.135Z,68.96
2019-05-15T02:45:36.659Z,69.06
2019-05-15T02:46:34.113Z,69.88
2019-05-15T02:47:33.112Z,69.06
2019-05-15T02:48:33.093Z,69.37
2019-05-15T02:49:33.102Z,69.88
2019-05-15T02:50:33.064Z,69.98
2019-05-15T02:51:33.062Z,69.78
2019-05-15T02:52:33.054Z,70.18
2019-05-15T02:53:33.053Z,69.47
2019-05-15T02:54:33.029Z,70.18
2019-05-15T02:55:33.019Z,69.47
2019-05-15T02:56:33.009Z,69.67
2019-05-15T02:57:32.994Z,69.88
2019-05-15T02:58:32.988Z,69.88
2019-05-15T02:59:32.969Z,69.67
2019-05-15T03:00:44.049Z,69.57
2019-05-15T03:01:34.409Z,69.88
2019-05-15T03:02:32.947Z,70.08
2019-05-15T03:03:32.927Z,69.88
2019-05-15T03:04:32.966Z,69.60
2019-05-15T03:05:32.943Z,69.78
2019-05-15T03:06:32.912Z,69.91
2019-05-15T03:07:32.896Z,70.22
2019-05-15T03:08:32.874Z,70.01
2019-05-15T03:09:32.863Z,70.22
2019-05-15T03:10:32.864Z,70.42
2019-05-15T03:11:32.853Z,70.12
2019-05-15T03:12:32.833Z,69.91
2019-05-15T03:13:32.831Z,70.12
2019-05-15T03:14:32.818Z,70.12
2019-05-15T03:15:32.801Z,69.91
2019-05-15T03:16:32.800Z,70.42
2019-05-15T03:17:32.780Z,70.63
2019-05-15T03:18:32.771Z,70.84
2019-05-15T03:19:32.759Z,71.55
2019-05-15T03:20:32.739Z,71.86
2019-05-15T03:21:33.363Z,71.66
2019-05-15T03:22:32.727Z,71.04
2019-05-15T03:23:32.720Z,71.25
2019-05-15T03:24:32.708Z,71.25
2019-05-15T03:25:32.698Z,71.25
2019-05-15T03:26:32.695Z,70.42
2019-05-15T03:27:34.756Z,70.32
2019-05-15T03:28:32.666Z,70.84
2019-05-15T03:29:32.645Z,70.84
2019-05-15T03:31:04.824Z,70.84
2019-05-15T03:31:49.037Z,70.01
2019-05-15T03:32:42.465Z,70.80
2019-05-15T03:33:36.679Z,70.70
2019-05-15T03:34:38.448Z,70.90
2019-05-15T03:35:33.591Z,71.01
2019-05-15T03:36:32.583Z,70.29
2019-05-15T03:37:34.134Z,69.88
2019-05-15T03:38:32.576Z,70.08
2019-05-15T03:39:32.552Z,70.08
2019-05-15T03:40:32.542Z,69.98
2019-05-15T03:41:32.519Z,69.57
2019-05-15T03:42:32.512Z,69.57
2019-05-15T03:43:33.526Z,69.98
2019-05-15T03:44:32.503Z,70.08
2019-05-15T03:45:32.478Z,70.50
2019-05-15T03:46:32.466Z,70.50
2019-05-15T03:47:32.458Z,70.80
2019-05-15T03:48:32.454Z,69.88
2019-05-15T03:49:32.441Z,70.29
2019-05-15T03:50:32.425Z,70.60
2019-05-15T03:51:32.414Z,70.29
2019-05-15T03:52:32.399Z,70.18
2019-05-15T03:53:32.416Z,70.50
2019-05-15T03:54:32.383Z,70.60
2019-05-15T03:55:32.397Z,70.18
2019-05-15T03:56:32.380Z,70.70
2019-05-15T03:57:32.352Z,70.70
2019-05-15T03:58:32.352Z,69.98
2019-05-15T03:59:32.332Z,69.98
2019-05-15T04:00:32.312Z,70.50
2019-05-15T04:01:38.446Z,70.18
2019-05-15T04:02:33.295Z,70.39
2019-05-15T04:03:32.291Z,70.50
2019-05-15T04:04:32.289Z,69.57
2019-05-15T04:05:32.262Z,69.78
2019-05-15T04:06:32.252Z,69.98
2019-05-15T04:07:32.239Z,69.78
2019-05-15T04:08:32.257Z,69.67
2019-05-15T04:09:32.229Z,70.50
2019-05-15T04:10:32.222Z,70.18
2019-05-15T04:11:32.249Z,69.98
2019-05-15T04:12:32.188Z,70.29
2019-05-15T04:13:32.257Z,70.29
2019-05-15T04:14:32.178Z,70.50
2019-05-15T04:15:32.202Z,71.42
2019-05-15T04:16:32.145Z,71.01
2019-05-15T04:17:32.138Z,70.80
2019-05-15T04:18:32.146Z,70.80
2019-05-15T04:19:32.124Z,69.78
2019-05-15T04:20:32.104Z,69.06
2019-05-15T04:21:32.097Z,69.37
2019-05-15T04:22:32.083Z,69.16
2019-05-15T04:23:32.091Z,69.67
2019-05-15T04:24:32.060Z,69.47
2019-05-15T04:25:32.051Z,69.98
2019-05-15T04:26:32.041Z,69.67
2019-05-15T04:27:32.032Z,69.78
2019-05-15T04:28:32.046Z,69.47
2019-05-15T04:29:32.009Z,70.08
2019-05-15T04:30:31.999Z,69.37
2019-05-15T04:31:50.791Z,68.96
2019-05-15T04:32:32.987Z,68.85
2019-05-15T04:33:31.980Z,68.75
2019-05-15T04:34:31.950Z,68.13
2019-05-15T04:35:31.947Z,69.06
2019-05-15T04:36:31.946Z,70.08
2019-05-15T04:37:31.926Z,68.75
2019-05-15T04:38:31.929Z,68.13
2019-05-15T04:39:31.896Z,68.65
2019-05-15T04:40:31.886Z,69.16
2019-05-15T04:41:31.892Z,69.88
2019-05-15T04:42:31.875Z,70.60
2019-05-15T04:43:39.657Z,69.23
2019-05-15T04:44:32.849Z,68.10
2019-05-15T04:45:34.903Z,68.00
2019-05-15T04:46:31.833Z,68.21
2019-05-15T04:47:31.813Z,68.30
2019-05-15T04:48:31.812Z,68.62
2019-05-15T04:49:31.796Z,68.38
2019-05-15T04:50:31.789Z,68.51
2019-05-15T04:51:31.790Z,68.89
2019-05-15T04:52:31.763Z,67.97
2019-05-15T04:53:33.144Z,68.07
2019-05-15T04:54:31.739Z,67.35
2019-05-15T04:55:31.729Z,67.66
2019-05-15T04:56:31.726Z,67.35
2019-05-15T04:57:34.056Z,66.91
2019-05-15T04:58:31.709Z,67.11
2019-05-15T05:00:40.617Z,66.78
2019-05-15T05:01:40.643Z,65.24
2019-05-15T05:02:40.856Z,65.65
2019-05-15T05:03:40.581Z,64.53
2019-05-15T05:04:40.573Z,64.53
2019-05-15T05:05:40.559Z,64.73
2019-05-15T05:06:40.561Z,64.42
2019-05-15T05:07:40.542Z,63.91
2019-05-15T05:08:40.532Z,64.01
2019-05-15T05:09:40.512Z,63.98
2019-05-15T05:10:40.500Z,62.66
2019-05-15T05:11:40.490Z,60.92
2019-05-15T05:12:42.676Z,57.24
2019-05-15T05:13:40.469Z,55.66
2019-05-15T05:14:40.473Z,56.58
2019-05-15T05:15:40.459Z,55.71
2019-05-15T05:16:40.438Z,54.64
2019-05-15T05:17:40.448Z,54.69
2019-05-15T05:18:41.546Z,56.04
2019-05-15T05:19:40.430Z,56.37
2019-05-15T05:20:40.396Z,56.58
2019-05-15T05:21:40.387Z,56.91
2019-05-15T05:22:40.406Z,57.78
2019-05-15T05:23:40.365Z,58.80
2019-05-15T05:24:40.355Z,58.52
2019-05-15T05:25:40.337Z,59.27
2019-05-15T05:26:40.333Z,59.47
2019-05-15T05:27:40.342Z,60.21
2019-05-15T05:28:40.337Z,60.49
2019-05-15T05:29:40.315Z,60.80
2019-05-15T05:30:40.304Z,59.60
2019-05-15T05:31:40.288Z,59.47
2019-05-15T05:32:40.283Z,59.64
2019-05-15T05:33:40.260Z,59.44
2019-05-15T05:34:40.251Z,59.41
2019-05-15T05:35:40.241Z,58.47
2019-05-15T05:36:40.230Z,57.60
2019-05-15T05:37:40.217Z,55.51
2019-05-15T05:38:40.258Z,54.46
2019-05-15T05:39:40.189Z,53.09
2019-05-15T05:40:40.203Z,53.47
2019-05-15T05:41:40.191Z,53.14
2019-05-15T05:42:40.158Z,53.32
2019-05-15T05:43:40.164Z,51.82
2019-05-15T05:44:42.674Z,49.90
2019-05-15T05:45:40.128Z,48.35
2019-05-15T05:46:40.117Z,47.64
2019-05-15T05:47:40.116Z,48.13
2019-05-15T05:48:40.096Z,47.34
2019-05-15T05:49:40.128Z,46.94
2019-05-15T05:50:43.677Z,47.72
2019-05-15T05:51:40.073Z,46.18
2019-05-15T05:52:40.054Z,45.06
2019-05-15T05:53:40.044Z,42.52
2019-05-15T05:54:40.054Z,40.78
2019-05-15T05:55:40.033Z,37.47
2019-05-15T05:56:40.014Z,38.06
2019-05-15T05:57:40.004Z,35.88
2019-05-15T05:58:40.004Z,34.39
2019-05-15T05:59:40.003Z,36.50
2019-05-15T06:00:39.962Z,37.96
2019-05-15T06:01:43.967Z,37.52
2019-05-15T06:02:47.604Z,37.30
2019-05-15T06:03:40.941Z,37.26
2019-05-15T06:04:39.942Z,34.84
2019-05-15T06:05:39.913Z,32.78
2019-05-15T06:06:39.914Z,31.57
2019-05-15T06:07:39.891Z,32.18
2019-05-15T06:08:39.892Z,33.79
2019-05-15T06:09:39.870Z,36.80
2019-05-15T06:10:39.860Z,39.95
2019-05-15T06:11:39.860Z,41.20
2019-05-15T06:12:39.841Z,44.78
2019-05-15T06:13:39.829Z,47.91
2019-05-15T06:14:39.819Z,48.77
2019-05-15T06:15:39.830Z,50.37
2019-05-15T06:16:39.817Z,52.12
2019-05-15T06:17:39.792Z,52.02
2019-05-15T06:18:39.790Z,52.50
2019-05-15T06:19:39.767Z,50.93
2019-05-15T06:20:39.787Z,49.79
2019-05-15T06:21:53.824Z,47.99
2019-05-15T06:22:40.740Z,47.77
2019-05-15T06:23:45.694Z,48.27
2019-05-15T06:24:40.726Z,47.95
2019-05-15T06:25:39.714Z,46.36
2019-05-15T06:26:39.685Z,45.04
2019-05-15T06:27:39.677Z,45.35
2019-05-15T06:28:39.769Z,45.12
2019-05-15T06:29:39.658Z,44.03
2019-05-15T06:30:39.645Z,40.74
2019-05-15T06:31:39.675Z,38.51
2019-05-15T06:32:40.156Z,35.58
2019-05-15T06:33:40.434Z,32.89
2019-05-15T06:34:39.613Z,31.35
2019-05-15T06:35:39.610Z,30.98
2019-05-15T06:36:39.623Z,33.28
2019-05-15T06:37:39.913Z,34.53
2019-05-15T06:38:39.615Z,35.25
2019-05-15T06:39:39.542Z,33.84
2019-05-15T06:41:55.323Z,31.39
2019-05-15T06:42:55.312Z,29.91
2019-05-15T06:43:55.333Z,30.32
2019-05-15T06:44:55.299Z,30.46
2019-05-15T06:45:55.289Z,29.81
2019-05-15T06:46:55.320Z,28.25
2019-05-15T06:47:55.289Z,27.34
2019-05-15T06:48:55.260Z,26.40
2019-05-15T06:49:55.257Z,25.67
2019-05-15T06:50:55.247Z,24.96
2019-05-15T06:51:55.229Z,24.25
2019-05-15T06:52:55.208Z,26.45
2019-05-15T06:53:55.199Z,28.71
2019-05-15T06:54:55.208Z,28.27
2019-05-15T06:55:55.188Z,29.04
2019-05-15T06:56:55.178Z,31.62
2019-05-15T06:57:55.176Z,31.31
2019-05-15T06:58:55.147Z,30.98
2019-05-15T06:59:55.148Z,31.34
2019-05-15T07:00:55.141Z,33.31
2019-05-15T07:01:55.117Z,34.12
2019-05-15T07:02:55.127Z,33.87
2019-05-15T07:03:55.114Z,31.26
2019-05-15T07:04:55.107Z,29.38
2019-05-15T07:05:55.096Z,27.51
2019-05-15T07:06:55.523Z,25.49
2019-05-15T07:07:55.077Z,25.04
2019-05-15T07:08:55.046Z,25.21
2019-05-15T07:09:55.055Z,24.71
2019-05-15T07:10:55.037Z,24.71
2019-05-15T07:11:55.245Z,25.29
2019-05-15T07:12:55.005Z,24.67
2019-05-15T07:13:55.005Z,24.18
2019-05-15T07:14:55.000Z,24.88
2019-05-15T07:15:54.988Z,24.46
2019-05-15T07:16:55.004Z,24.26
2019-05-15T07:17:54.961Z,23.35
2019-05-15T07:18:54.986Z,22.70
2019-05-15T07:19:54.935Z,23.60
2019-05-15T07:20:54.933Z,24.00
2019-05-15T07:21:54.921Z,24.55
2019-05-15T07:22:54.909Z,23.82
2019-05-15T07:23:54.905Z,24.01
2019-05-15T07:24:54.903Z,23.11
2019-05-15T07:25:54.874Z,25.71
2019-05-15T07:26:54.874Z,28.80
2019-05-15T07:27:54.852Z,29.38
2019-05-15T07:28:54.863Z,30.52
2019-05-15T07:29:54.852Z,31.31
2019-05-15T07:30:54.905Z,31.68
2019-05-15T07:31:54.814Z,28.31
2019-05-15T07:32:54.832Z,27.51
2019-05-15T07:33:54.842Z,27.17
2019-05-15T07:34:54.785Z,25.34
2019-05-15T07:35:54.799Z,24.47
2019-05-15T07:36:54.772Z,26.64
2019-05-15T07:37:54.771Z,27.58
2019-05-15T07:38:54.747Z,29.74
2019-05-15T07:39:54.758Z,30.01
2019-05-15T07:41:00.114Z,28.18
2019-05-15T07:41:57.705Z,27.94
2019-05-15T07:42:54.802Z,27.90
2019-05-15T07:43:54.713Z,25.78
2019-05-15T07:46:03.610Z,25.35
2019-05-15T07:47:03.593Z,24.11
2019-05-15T07:48:03.593Z,23.27
2019-05-15T07:49:03.619Z,22.11
2019-05-15T07:50:03.571Z,22.19
2019-05-15T07:51:03.555Z,22.20
2019-05-15T07:52:03.555Z,21.41
2019-05-15T07:53:03.799Z,21.49
2019-05-15T07:54:03.552Z,21.17
2019-05-15T07:55:03.512Z,21.18
2019-05-15T07:56:03.516Z,22.13
2019-05-15T07:57:03.487Z,24.79
2019-05-15T07:58:03.503Z,24.63
2019-05-15T07:59:03.486Z,26.59
2019-05-15T08:00:03.481Z,27.22
2019-05-15T08:02:19.262Z,26.29
2019-05-15T08:03:19.243Z,26.51
2019-05-15T08:04:28.846Z,28.03
2019-05-15T08:05:20.203Z,30.58
2019-05-15T08:06:19.192Z,30.81
2019-05-15T08:07:19.184Z,30.85
2019-05-15T08:08:19.180Z,27.62
2019-05-15T08:09:19.152Z,28.09
2019-05-15T08:10:19.162Z,26.72
2019-05-15T08:11:23.938Z,26.06
2019-05-15T08:12:20.155Z,26.96
2019-05-15T08:13:19.121Z,27.15
2019-05-15T08:14:19.110Z,27.63
2019-05-15T08:15:19.112Z,26.72
2019-05-15T08:16:19.090Z,25.63
2019-05-15T08:17:21.881Z,25.46
2019-05-15T08:18:19.071Z,24.73
2019-05-15T08:19:19.081Z,26.88
2019-05-15T08:20:19.059Z,28.42
2019-05-15T08:21:19.041Z,28.87
2019-05-15T08:22:19.049Z,26.09
2019-05-15T08:23:19.565Z,24.17
2019-05-15T08:24:19.172Z,24.32
2019-05-15T08:25:31.050Z,24.52
2019-05-15T08:26:19.999Z,25.19
2019-05-15T08:27:19.174Z,24.24
2019-05-15T08:28:19.428Z,23.63
2019-05-15T08:29:21.620Z,24.52
2019-05-15T08:30:18.948Z,25.63
2019-05-15T08:31:18.967Z,23.12
2019-05-15T08:32:19.174Z,22.48
2019-05-15T08:33:19.077Z,22.48
2019-05-15T08:34:19.729Z,23.35
2019-05-15T08:35:19.276Z,23.76
2019-05-15T08:36:18.879Z,23.82
2019-05-15T08:37:18.897Z,26.79
2019-05-15T08:38:18.877Z,26.62
2019-05-15T08:39:19.150Z,26.75
2019-05-15T08:40:18.849Z,26.40
2019-05-15T08:41:18.837Z,28.44
2019-05-15T08:42:19.024Z,29.60
2019-05-15T08:43:18.848Z,29.44
2019-05-15T08:44:18.882Z,28.47
2019-05-15T08:45:19.067Z,26.42
2019-05-15T08:46:18.886Z,26.21
2019-05-15T08:47:19.359Z,26.37
2019-05-15T08:48:18.816Z,27.54
2019-05-15T08:49:20.285Z,26.92
2019-05-15T08:50:18.746Z,26.76
2019-05-15T08:51:19.421Z,26.78
2019-05-15T08:52:19.065Z,26.15
2019-05-15T08:53:19.318Z,25.01
2019-05-15T08:54:18.714Z,25.20
2019-05-15T08:55:20.187Z,26.16
2019-05-15T08:56:19.381Z,24.22
2019-05-15T08:57:20.326Z,22.19
2019-05-15T08:58:20.127Z,22.11
2019-05-15T08:59:18.919Z,24.05
2019-05-15T09:00:18.750Z,23.93
2019-05-15T09:01:18.634Z,23.76
2019-05-15T09:02:18.726Z,25.09
2019-05-15T09:03:18.655Z,25.66
2019-05-15T09:04:30.157Z,25.16
2019-05-15T09:05:19.594Z,25.29
2019-05-15T09:06:22.756Z,25.61
2019-05-15T09:07:18.562Z,25.10
2019-05-15T09:08:19.596Z,23.30
2019-05-15T09:09:18.574Z,21.66
2019-05-15T09:10:18.609Z,23.99
2019-05-15T09:11:19.235Z,25.32
2019-05-15T09:12:18.987Z,26.47
2019-05-15T09:13:19.154Z,26.87
2019-05-15T09:14:18.678Z,26.90
2019-05-15T09:15:18.616Z,27.91
2019-05-15T09:16:18.648Z,29.60
2019-05-15T09:17:18.482Z,27.37
2019-05-15T09:18:20.191Z,27.58
2019-05-15T09:19:18.575Z,27.30
2019-05-15T09:20:19.423Z,28.24
2019-05-15T09:21:19.131Z,29.69
2019-05-15T09:22:18.844Z,31.26
2019-05-15T09:23:19.582Z,31.91
2019-05-15T09:24:19.850Z,33.05
2019-05-15T09:25:19.446Z,34.47
2019-05-15T09:26:19.438Z,33.46
2019-05-15T09:27:18.546Z,32.65
2019-05-15T09:28:19.163Z,34.59
2019-05-15T09:29:18.493Z,35.09
2019-05-15T09:30:18.488Z,33.56
2019-05-15T09:31:19.285Z,33.26
2019-05-15T09:32:19.100Z,32.85
2019-05-15T09:33:19.973Z,32.73
2019-05-15T09:34:18.658Z,32.43
2019-05-15T09:35:18.744Z,32.97
2019-05-15T09:36:20.097Z,33.49
2019-05-15T09:37:18.266Z,33.88
2019-05-15T09:38:18.811Z,34.79
2019-05-15T09:39:18.537Z,35.09
2019-05-15T09:40:18.730Z,34.69
2019-05-15T09:41:18.219Z,34.50
2019-05-15T09:42:18.249Z,35.17
2019-05-15T09:43:18.453Z,32.93
2019-05-15T09:44:21.525Z,31.73
2019-05-15T09:45:18.196Z,32.55
2019-05-15T09:46:18.640Z,33.05
2019-05-15T09:47:18.800Z,31.93
2019-05-15T09:48:19.665Z,31.52
2019-05-15T09:49:18.361Z,31.61
2019-05-15T09:50:19.412Z,33.24
2019-05-15T09:51:18.458Z,32.55
2019-05-15T09:52:22.577Z,32.38
2019-05-15T09:53:18.884Z,33.10
2019-05-15T09:54:19.364Z,34.09
2019-05-15T09:55:18.216Z,34.79
2019-05-15T09:56:18.729Z,32.68
2019-05-15T09:57:18.787Z,32.19
2019-05-15T09:58:20.387Z,33.20
2019-05-15T09:59:18.757Z,33.69
2019-05-15T10:00:19.012Z,32.95
2019-05-15T10:01:19.593Z,31.45
2019-05-15T10:02:18.950Z,30.96
2019-05-15T10:03:19.004Z,31.77
2019-05-15T10:04:18.978Z,31.76
2019-05-15T10:05:18.963Z,30.94
2019-05-15T10:06:20.563Z,31.84
2019-05-15T10:07:19.310Z,31.64
2019-05-15T10:08:20.991Z,31.03
2019-05-15T10:09:18.906Z,32.04
2019-05-15T10:10:19.202Z,32.36
2019-05-15T10:11:19.602Z,31.87
2019-05-15T10:12:18.331Z,32.50
2019-05-15T10:13:18.844Z,31.99
2019-05-15T10:14:19.548Z,30.36
2019-05-15T10:15:18.559Z,31.26
2019-05-15T10:16:19.935Z,30.05
2019-05-15T10:17:18.502Z,32.26
2019-05-15T10:18:19.109Z,30.64
2019-05-15T10:19:18.509Z,31.05
2019-05-15T10:20:18.439Z,32.17
2019-05-15T10:21:18.686Z,30.98
2019-05-15T10:22:18.743Z,32.07
2019-05-15T10:23:19.455Z,32.46
2019-05-15T10:24:18.246Z,31.76
2019-05-15T10:25:19.061Z,31.87
2019-05-15T10:26:19.261Z,34.18
2019-05-15T10:27:18.092Z,33.37
2019-05-15T10:28:18.740Z,32.35
2019-05-15T10:29:17.703Z,32.33
2019-05-15T10:30:18.867Z,32.03
2019-05-15T10:31:19.531Z,32.11
2019-05-15T10:32:19.504Z,32.52
2019-05-15T10:33:19.554Z,29.80
2019-05-15T10:34:18.314Z,29.83
2019-05-15T10:35:27.465Z,31.96
2019-05-15T10:36:19.055Z,32.35
2019-05-15T10:37:18.588Z,30.74
2019-05-15T10:38:19.380Z,31.25
2019-05-15T10:39:18.199Z,31.76
2019-05-15T10:40:20.396Z,31.35
2019-05-15T10:41:18.805Z,31.46
2019-05-15T10:42:19.349Z,31.88
2019-05-15T10:43:20.500Z,31.40
2019-05-15T10:44:18.156Z,31.70
2019-05-15T10:45:19.280Z,32.10
2019-05-15T10:46:19.022Z,33.10
2019-05-15T10:47:17.512Z,32.88
2019-05-15T10:48:19.008Z,33.27
2019-05-15T10:49:18.960Z,31.15
2019-05-15T10:50:19.128Z,31.96
2019-05-15T10:51:19.462Z,30.94
2019-05-15T10:52:18.006Z,30.34
2019-05-15T10:53:18.709Z,30.86
2019-05-15T10:54:19.184Z,31.97
2019-05-15T10:55:18.924Z,32.17
2019-05-15T10:56:18.573Z,32.16
2019-05-15T10:57:18.951Z,31.84
2019-05-15T10:58:21.790Z,30.52
2019-05-15T10:59:18.479Z,29.83
2019-05-15T11:00:19.473Z,31.25
2019-05-15T11:01:19.280Z,30.46
2019-05-15T11:02:19.191Z,30.46
2019-05-15T11:03:19.827Z,30.96
2019-05-15T11:04:18.144Z,31.37
2019-05-15T11:05:18.027Z,32.36
2019-05-15T11:06:18.306Z,30.94
2019-05-15T11:07:19.447Z,30.73
2019-05-15T11:08:18.852Z,32.14
2019-05-15T11:09:18.592Z,29.92
2019-05-15T11:10:18.551Z,29.72
2019-05-15T11:11:18.346Z,30.43
2019-05-15T11:12:18.921Z,30.32
2019-05-15T11:13:18.648Z,28.61
2019-05-15T11:14:18.455Z,29.13
2019-05-15T11:15:18.481Z,30.04
2019-05-15T11:16:18.601Z,29.33
2019-05-15T11:17:17.205Z,27.73
2019-05-15T11:18:17.180Z,28.95
2019-05-15T11:19:17.186Z,28.56
2019-05-15T11:20:18.743Z,29.06
2019-05-15T11:21:19.066Z,28.85
2019-05-15T11:22:18.815Z,27.95
2019-05-15T11:23:19.770Z,28.56
2019-05-15T11:24:19.312Z,30.07
2019-05-15T11:25:17.109Z,27.44
2019-05-15T11:26:19.447Z,27.65
2019-05-15T11:27:19.023Z,28.45
2019-05-15T11:28:17.079Z,28.56
2019-05-15T11:29:17.077Z,28.96
2019-05-15T11:30:19.222Z,30.27
2019-05-15T11:31:17.029Z,29.54
2019-05-15T11:32:17.033Z,27.53
2019-05-15T11:33:18.949Z,29.86
2019-05-15T11:34:18.580Z,29.44
2019-05-15T11:35:18.656Z,29.24
2019-05-15T11:36:18.514Z,27.43
2019-05-15T11:37:18.886Z,27.53
2019-05-15T11:38:19.252Z,28.12
2019-05-15T11:39:18.266Z,28.63
2019-05-15T11:40:18.829Z,28.83
2019-05-15T11:41:19.195Z,28.34
2019-05-15T11:42:16.913Z,28.45
2019-05-15T11:43:19.704Z,31.92
2019-05-15T11:44:18.812Z,32.73
2019-05-15T11:45:18.565Z,33.22
2019-05-15T11:46:18.589Z,33.32
2019-05-15T11:47:18.422Z,34.11
2019-05-15T11:48:20.139Z,35.31
2019-05-15T11:49:18.279Z,34.08
2019-05-15T11:50:19.975Z,34.57
2019-05-15T11:51:18.414Z,32.36
2019-05-15T11:52:18.783Z,32.38
2019-05-15T11:53:19.161Z,32.88
2019-05-15T11:54:19.117Z,32.78
2019-05-15T11:55:16.782Z,33.88
2019-05-15T11:56:18.933Z,34.06
2019-05-15T11:57:19.040Z,34.06
2019-05-15T11:58:19.003Z,34.86
2019-05-15T11:59:18.414Z,31.54
2019-05-15T12:00:26.143Z,31.65
2019-05-15T12:01:19.090Z,33.27
2019-05-15T12:02:18.871Z,33.88
2019-05-15T12:03:18.875Z,33.15
2019-05-15T12:04:27.812Z,33.05
2019-05-15T12:05:18.260Z,32.23
2019-05-15T12:06:21.983Z,32.53
2019-05-15T12:07:18.182Z,32.23
2019-05-15T12:08:18.473Z,30.51
2019-05-15T12:09:18.745Z,29.91
2019-05-15T12:10:18.448Z,30.41
2019-05-15T12:11:31.726Z,30.62
2019-05-15T12:12:18.052Z,28.41
2019-05-15T12:13:19.006Z,29.93
2019-05-15T12:14:19.444Z,32.06
2019-05-15T12:15:18.700Z,30.93
2019-05-15T12:16:16.554Z,30.63
2019-05-15T12:17:18.818Z,29.80
2019-05-15T12:18:16.532Z,29.60
2019-05-15T12:19:17.520Z,27.98
2019-05-15T12:20:19.029Z,28.80
2019-05-15T12:21:19.736Z,29.20
2019-05-15T12:22:16.493Z,29.10
2019-05-15T12:23:16.480Z,29.80
2019-05-15T12:24:16.460Z,29.10
2019-05-15T12:25:16.529Z,28.98
2019-05-15T12:26:17.031Z,29.39
2019-05-15T12:27:18.452Z,29.08
2019-05-15T12:28:16.424Z,28.38
2019-05-15T12:29:16.419Z,28.19
2019-05-15T12:30:16.397Z,27.50
2019-05-15T12:31:16.379Z,28.61
2019-05-15T12:32:26.589Z,29.41
2019-05-15T12:33:18.371Z,29.91
2019-05-15T12:34:18.952Z,29.00
2019-05-15T12:35:16.342Z,30.11
2019-05-15T12:37:19.312Z,27.89
2019-05-15T12:37:59.047Z,29.59
2019-05-15T12:38:18.597Z,28.80
2019-05-15T12:39:21.802Z,28.69
2019-05-15T13:00:18.606Z,30.41
2019-05-15T13:01:18.481Z,28.80
2019-05-15T13:02:18.711Z,29.00
2019-05-15T13:03:18.114Z,29.00
2019-05-15T13:04:16.055Z,29.60
2019-05-15T13:05:16.018Z,28.39
2019-05-15T13:06:19.022Z,28.59
2019-05-15T13:07:19.337Z,29.32
2019-05-15T13:08:15.988Z,29.60
2019-05-15T13:09:15.995Z,30.00
2019-05-15T13:10:18.248Z,29.10
2019-05-15T13:11:17.911Z,30.31
2019-05-15T13:12:18.075Z,28.89
2019-05-15T13:13:15.934Z,30.41
2019-05-15T13:14:15.934Z,29.20
2019-05-15T13:15:18.767Z,29.71
2019-05-15T13:16:15.901Z,29.60
2019-05-15T13:17:18.200Z,29.40